sensor_id;sensor_type;location;lat;lon;timestamp;pressure;altitude;pressure_sealevel;temperature;humidity
28267;BME280;15525;45.568;5.448;2022-07-17T00:01:47;98417.69;;;24.71;37.52
28267;BME280;15525;45.568;5.448;2022-07-17T00:04:13;98423.50;;;24.70;37.60
28267;BME280;15525;45.568;5.448;2022-07-17T00:06:39;98428.03;;;24.78;37.27
28267;BME280;15525;45.568;5.448;2022-07-17T00:09:05;98423.72;;;24.77;37.40
28267;BME280;15525;45.568;5.448;2022-07-17T00:11:31;98429.19;;;24.77;37.42
28267;BME280;15525;45.568;5.448;2022-07-17T00:13:56;98433.91;;;24.64;37.74
28267;BME280;15525;45.568;5.448;2022-07-17T00:16:22;98438.03;;;24.58;37.77
28267;BME280;15525;45.568;5.448;2022-07-17T00:18:48;98426.09;;;24.51;37.57
28267;BME280;15525;45.568;5.448;2022-07-17T00:21:13;98437.00;;;24.63;37.75
28267;BME280;15525;45.568;5.448;2022-07-17T00:23:39;98443.97;;;24.60;37.81
28267;BME280;15525;45.568;5.448;2022-07-17T00:26:04;98442.53;;;24.51;37.73
28267;BME280;15525;45.568;5.448;2022-07-17T00:28:30;98435.25;;;24.43;37.87
28267;BME280;15525;45.568;5.448;2022-07-17T00:30:55;98426.16;;;24.39;37.99
28267;BME280;15525;45.568;5.448;2022-07-17T00:33:21;98417.22;;;24.26;38.32
28267;BME280;15525;45.568;5.448;2022-07-17T00:35:46;98415.28;;;24.27;38.37
28267;BME280;15525;45.568;5.448;2022-07-17T00:38:12;98425.97;;;24.32;38.10
28267;BME280;15525;45.568;5.448;2022-07-17T00:40:38;98424.13;;;24.36;38.35
28267;BME280;15525;45.568;5.448;2022-07-17T00:43:04;98415.28;;;24.27;38.46
28267;BME280;15525;45.568;5.448;2022-07-17T00:45:30;98422.38;;;24.16;38.71
28267;BME280;15525;45.568;5.448;2022-07-17T00:48:04;98419.91;;;23.99;39.44
28267;BME280;15525;45.568;5.448;2022-07-17T00:50:35;98418.00;;;23.87;39.78
28267;BME280;15525;45.568;5.448;2022-07-17T00:53:01;98426.34;;;23.79;39.76
28267;BME280;15525;45.568;5.448;2022-07-17T00:55:27;98409.84;;;23.75;39.71
28267;BME280;15525;45.568;5.448;2022-07-17T00:57:55;98419.28;;;23.78;39.79
28267;BME280;15525;45.568;5.448;2022-07-17T01:00:21;98416.13;;;23.64;39.83
28267;BME280;15525;45.568;5.448;2022-07-17T01:02:49;98422.94;;;23.70;39.93
28267;BME280;15525;45.568;5.448;2022-07-17T01:05:16;98420.00;;;23.51;40.34
28267;BME280;15525;45.568;5.448;2022-07-17T01:07:42;98412.50;;;23.48;40.49
28267;BME280;15525;45.568;5.448;2022-07-17T01:10:08;98412.13;;;23.61;39.99
28267;BME280;15525;45.568;5.448;2022-07-17T01:12:34;98414.31;;;23.68;39.40
28267;BME280;15525;45.568;5.448;2022-07-17T01:14:59;98406.34;;;23.63;39.81
28267;BME280;15525;45.568;5.448;2022-07-17T01:17:26;98416.59;;;23.30;40.54
28267;BME280;15525;45.568;5.448;2022-07-17T01:19:52;98410.31;;;23.17;40.93
28267;BME280;15525;45.568;5.448;2022-07-17T01:22:18;98412.94;;;23.14;41.16
28267;BME280;15525;45.568;5.448;2022-07-17T01:24:44;98390.88;;;22.95;41.36
28267;BME280;15525;45.568;5.448;2022-07-17T01:27:09;98412.13;;;22.89;41.97
28267;BME280;15525;45.568;5.448;2022-07-17T01:29:36;98414.28;;;22.84;42.11
28267;BME280;15525;45.568;5.448;2022-07-17T01:32:02;98399.25;;;22.78;42.01
28267;BME280;15525;45.568;5.448;2022-07-17T01:34:28;98413.28;;;22.88;41.88
28267;BME280;15525;45.568;5.448;2022-07-17T01:36:53;98412.13;;;22.89;41.60
28267;BME280;15525;45.568;5.448;2022-07-17T01:39:19;98423.63;;;22.95;41.50
28267;BME280;15525;45.568;5.448;2022-07-17T01:42:04;98412.94;;;23.02;41.48
28267;BME280;15525;45.568;5.448;2022-07-17T01:44:29;98411.09;;;22.94;41.50
28267;BME280;15525;45.568;5.448;2022-07-17T01:46:55;98422.28;;;23.01;41.07
28267;BME280;15525;45.568;5.448;2022-07-17T01:49:20;98409.88;;;23.03;41.14
28267;BME280;15525;45.568;5.448;2022-07-17T01:51:46;98419.09;;;22.99;41.46
28267;BME280;15525;45.568;5.448;2022-07-17T01:54:11;98418.84;;;22.92;41.39
28267;BME280;15525;45.568;5.448;2022-07-17T01:56:36;98414.84;;;22.89;41.57
28267;BME280;15525;45.568;5.448;2022-07-17T01:59:03;98418.25;;;22.74;42.17
28267;BME280;15525;45.568;5.448;2022-07-17T02:01:28;98417.63;;;22.57;42.63
28267;BME280;15525;45.568;5.448;2022-07-17T02:03:54;98420.47;;;22.48;42.94
28267;BME280;15525;45.568;5.448;2022-07-17T02:06:19;98433.03;;;22.41;42.80
28267;BME280;15525;45.568;5.448;2022-07-17T02:08:45;98424.53;;;22.42;43.15
28267;BME280;15525;45.568;5.448;2022-07-17T02:11:10;98425.50;;;22.38;42.93
28267;BME280;15525;45.568;5.448;2022-07-17T02:13:36;98428.09;;;22.55;42.32
28267;BME280;15525;45.568;5.448;2022-07-17T02:16:02;98423.34;;;22.64;41.82
28267;BME280;15525;45.568;5.448;2022-07-17T02:18:27;98421.63;;;22.59;42.36
28267;BME280;15525;45.568;5.448;2022-07-17T02:20:53;98420.56;;;22.52;42.35
28267;BME280;15525;45.568;5.448;2022-07-17T02:23:18;98426.97;;;22.56;42.19
28267;BME280;15525;45.568;5.448;2022-07-17T02:25:44;98421.50;;;22.56;42.01
28267;BME280;15525;45.568;5.448;2022-07-17T02:28:09;98424.03;;;22.40;42.20
28267;BME280;15525;45.568;5.448;2022-07-17T02:30:35;98425.50;;;22.26;42.76
28267;BME280;15525;45.568;5.448;2022-07-17T02:33:00;98423.41;;;22.23;42.82
28267;BME280;15525;45.568;5.448;2022-07-17T02:35:26;98419.44;;;22.20;42.81
28267;BME280;15525;45.568;5.448;2022-07-17T02:37:51;98418.72;;;22.11;42.85
28267;BME280;15525;45.568;5.448;2022-07-17T02:40:17;98416.94;;;21.95;43.42
28267;BME280;15525;45.568;5.448;2022-07-17T02:42:42;98423.84;;;21.92;43.66
28267;BME280;15525;45.568;5.448;2022-07-17T02:45:08;98414.59;;;22.05;43.27
28267;BME280;15525;45.568;5.448;2022-07-17T02:47:34;98413.84;;;22.17;43.09
28267;BME280;15525;45.568;5.448;2022-07-17T02:50:02;98425.16;;;22.07;43.08
28267;BME280;15525;45.568;5.448;2022-07-17T02:52:28;98408.47;;;22.08;43.04
28267;BME280;15525;45.568;5.448;2022-07-17T02:54:53;98400.28;;;22.08;42.97
28267;BME280;15525;45.568;5.448;2022-07-17T02:57:19;98424.50;;;22.10;43.12
28267;BME280;15525;45.568;5.448;2022-07-17T02:59:45;98397.25;;;21.89;43.02
28267;BME280;15525;45.568;5.448;2022-07-17T03:02:11;98418.97;;;21.98;43.35
28267;BME280;15525;45.568;5.448;2022-07-17T03:04:36;98419.91;;;21.81;43.68
28267;BME280;15525;45.568;5.448;2022-07-17T03:07:02;98423.69;;;21.68;43.88
28267;BME280;15525;45.568;5.448;2022-07-17T03:09:27;98420.00;;;21.44;44.11
28267;BME280;15525;45.568;5.448;2022-07-17T03:11:54;98426.56;;;21.72;43.77
28267;BME280;15525;45.568;5.448;2022-07-17T03:14:19;98419.19;;;21.72;44.19
28267;BME280;15525;45.568;5.448;2022-07-17T03:16:45;98418.75;;;21.62;44.19
28267;BME280;15525;45.568;5.448;2022-07-17T03:19:10;98420.94;;;21.48;44.25
28267;BME280;15525;45.568;5.448;2022-07-17T03:21:36;98416.06;;;21.53;43.90
28267;BME280;15525;45.568;5.448;2022-07-17T03:24:01;98432.81;;;21.72;43.60
28267;BME280;15525;45.568;5.448;2022-07-17T03:26:26;98429.47;;;21.67;43.60
28267;BME280;15525;45.568;5.448;2022-07-17T03:28:52;98408.22;;;21.52;43.70
28267;BME280;15525;45.568;5.448;2022-07-17T03:31:17;98426.31;;;21.56;43.74
28267;BME280;15525;45.568;5.448;2022-07-17T03:33:43;98420.03;;;21.64;43.58
28267;BME280;15525;45.568;5.448;2022-07-17T03:36:08;98432.19;;;21.67;43.91
28267;BME280;15525;45.568;5.448;2022-07-17T03:38:34;98434.97;;;21.58;43.86
28267;BME280;15525;45.568;5.448;2022-07-17T03:40:59;98435.63;;;21.55;43.91
28267;BME280;15525;45.568;5.448;2022-07-17T03:43:25;98428.63;;;21.46;44.05
28267;BME280;15525;45.568;5.448;2022-07-17T03:45:50;98435.09;;;21.41;44.44
28267;BME280;15525;45.568;5.448;2022-07-17T03:48:16;98418.03;;;21.24;44.49
28267;BME280;15525;45.568;5.448;2022-07-17T03:50:41;98432.19;;;21.38;44.61
28267;BME280;15525;45.568;5.448;2022-07-17T03:53:07;98432.75;;;21.23;44.67
28267;BME280;15525;45.568;5.448;2022-07-17T03:55:32;98435.97;;;21.25;44.76
28267;BME280;15525;45.568;5.448;2022-07-17T03:57:58;98436.94;;;21.20;44.70
28267;BME280;15525;45.568;5.448;2022-07-17T04:00:23;98434.28;;;21.12;44.75
28267;BME280;15525;45.568;5.448;2022-07-17T04:02:49;98443.31;;;20.86;45.35
28267;BME280;15525;45.568;5.448;2022-07-17T04:05:14;98440.78;;;20.73;45.33
28267;BME280;15525;45.568;5.448;2022-07-17T04:07:41;98452.94;;;20.93;45.31
28267;BME280;15525;45.568;5.448;2022-07-17T04:10:09;98442.66;;;20.89;45.24
28267;BME280;15525;45.568;5.448;2022-07-17T04:12:35;98441.69;;;20.94;45.00
28267;BME280;15525;45.568;5.448;2022-07-17T04:15:02;98458.00;;;21.03;45.17
28267;BME280;15525;45.568;5.448;2022-07-17T04:17:27;98433.41;;;20.82;45.81
28267;BME280;15525;45.568;5.448;2022-07-17T04:19:53;98453.41;;;20.77;45.62
28267;BME280;15525;45.568;5.448;2022-07-17T04:22:19;98451.47;;;20.86;45.60
28267;BME280;15525;45.568;5.448;2022-07-17T04:24:46;98454.03;;;20.92;45.79
28267;BME280;15525;45.568;5.448;2022-07-17T04:27:12;98442.97;;;20.97;45.36
28267;BME280;15525;45.568;5.448;2022-07-17T04:29:37;98443.28;;;21.04;45.09
28267;BME280;15525;45.568;5.448;2022-07-17T04:32:04;98452.25;;;21.04;45.21
28267;BME280;15525;45.568;5.448;2022-07-17T04:34:29;98441.09;;;20.80;45.82
28267;BME280;15525;45.568;5.448;2022-07-17T04:36:55;98452.28;;;20.87;45.67
28267;BME280;15525;45.568;5.448;2022-07-17T04:39:22;98442.03;;;20.93;45.65
28267;BME280;15525;45.568;5.448;2022-07-17T04:41:48;98451.19;;;20.79;45.83
28267;BME280;15525;45.568;5.448;2022-07-17T04:44:14;98448.78;;;20.78;46.13
28267;BME280;15525;45.568;5.448;2022-07-17T04:46:39;98451.97;;;20.88;45.97
28267;BME280;15525;45.568;5.448;2022-07-17T04:49:05;98458.19;;;20.98;45.82
28267;BME280;15525;45.568;5.448;2022-07-17T04:51:30;98449.84;;;21.03;45.54
28267;BME280;15525;45.568;5.448;2022-07-17T04:53:55;98444.03;;;21.13;45.29
28267;BME280;15525;45.568;5.448;2022-07-17T04:56:21;98456.69;;;21.09;45.08
28267;BME280;15525;45.568;5.448;2022-07-17T04:58:47;98464.38;;;21.15;45.26
28267;BME280;15525;45.568;5.448;2022-07-17T05:01:12;98442.84;;;21.22;44.85
28267;BME280;15525;45.568;5.448;2022-07-17T05:03:37;98461.97;;;21.14;45.25
28267;BME280;15525;45.568;5.448;2022-07-17T05:06:03;98448.66;;;21.12;45.12
28267;BME280;15525;45.568;5.448;2022-07-17T05:08:29;98456.06;;;21.12;45.51
28267;BME280;15525;45.568;5.448;2022-07-17T05:10:54;98458.91;;;21.15;45.06
28267;BME280;15525;45.568;5.448;2022-07-17T05:13:19;98453.09;;;21.25;45.25
28267;BME280;15525;45.568;5.448;2022-07-17T05:15:45;98468.75;;;21.37;45.05
28267;BME280;15525;45.568;5.448;2022-07-17T05:18:11;98458.91;;;21.44;45.18
28267;BME280;15525;45.568;5.448;2022-07-17T05:20:36;98469.50;;;21.46;44.91
28267;BME280;15525;45.568;5.448;2022-07-17T05:23:02;98467.47;;;21.34;45.42
28267;BME280;15525;45.568;5.448;2022-07-17T05:25:27;98458.69;;;21.29;45.70
28267;BME280;15525;45.568;5.448;2022-07-17T05:27:52;98449.09;;;21.23;45.80
28267;BME280;15525;45.568;5.448;2022-07-17T05:30:18;98470.72;;;21.57;45.33
28267;BME280;15525;45.568;5.448;2022-07-17T05:32:43;98472.41;;;21.70;45.55
28267;BME280;15525;45.568;5.448;2022-07-17T05:35:09;98468.06;;;21.69;45.29
28267;BME280;15525;45.568;5.448;2022-07-17T05:37:35;98456.56;;;21.72;45.30
28267;BME280;15525;45.568;5.448;2022-07-17T05:40:00;98454.28;;;21.74;44.59
28267;BME280;15525;45.568;5.448;2022-07-17T05:42:26;98468.44;;;21.88;44.46
28267;BME280;15525;45.568;5.448;2022-07-17T05:44:51;98460.44;;;21.91;43.70
28267;BME280;15525;45.568;5.448;2022-07-17T05:47:17;98478.09;;;21.85;43.74
28267;BME280;15525;45.568;5.448;2022-07-17T05:49:42;98468.53;;;21.79;43.37
28267;BME280;15525;45.568;5.448;2022-07-17T05:52:07;98482.59;;;21.81;43.41
28267;BME280;15525;45.568;5.448;2022-07-17T05:54:33;98464.53;;;21.77;43.17
28267;BME280;15525;45.568;5.448;2022-07-17T05:56:59;98483.31;;;21.99;42.63
28267;BME280;15525;45.568;5.448;2022-07-17T05:59:25;98484.09;;;22.20;42.39
28267;BME280;15525;45.568;5.448;2022-07-17T06:01:51;98488.06;;;22.43;42.13
28267;BME280;15525;45.568;5.448;2022-07-17T06:04:16;98475.16;;;22.52;41.99
28267;BME280;15525;45.568;5.448;2022-07-17T06:06:41;98469.63;;;22.60;41.86
28267;BME280;15525;45.568;5.448;2022-07-17T06:09:07;98472.91;;;22.54;41.67
28267;BME280;15525;45.568;5.448;2022-07-17T06:11:32;98483.41;;;22.64;41.82
28267;BME280;15525;45.568;5.448;2022-07-17T06:13:58;98483.13;;;22.57;41.70
28267;BME280;15525;45.568;5.448;2022-07-17T06:16:23;98484.22;;;22.64;41.56
28267;BME280;15525;45.568;5.448;2022-07-17T06:18:49;98486.97;;;22.76;41.43
28267;BME280;15525;45.568;5.448;2022-07-17T06:21:14;98481.84;;;22.75;41.34
28267;BME280;15525;45.568;5.448;2022-07-17T06:23:39;98470.34;;;22.69;41.35
28267;BME280;15525;45.568;5.448;2022-07-17T06:26:05;98488.47;;;22.98;41.11
28267;BME280;15525;45.568;5.448;2022-07-17T06:28:31;98500.56;;;22.97;41.16
28267;BME280;15525;45.568;5.448;2022-07-17T06:30:56;98499.94;;;23.24;40.72
28267;BME280;15525;45.568;5.448;2022-07-17T06:33:22;98503.38;;;23.45;40.32
28267;BME280;15525;45.568;5.448;2022-07-17T06:35:47;98497.00;;;23.53;40.23
28267;BME280;15525;45.568;5.448;2022-07-17T06:38:13;98501.44;;;23.45;40.26
28267;BME280;15525;45.568;5.448;2022-07-17T06:40:38;98502.00;;;23.51;40.13
28267;BME280;15525;45.568;5.448;2022-07-17T06:43:05;98504.38;;;23.76;39.71
28267;BME280;15525;45.568;5.448;2022-07-17T06:45:31;98488.91;;;23.92;39.28
28267;BME280;15525;45.568;5.448;2022-07-17T06:47:57;98488.38;;;24.26;38.75
28267;BME280;15525;45.568;5.448;2022-07-17T06:50:22;98488.59;;;24.61;38.17
28267;BME280;15525;45.568;5.448;2022-07-17T06:52:47;98494.47;;;24.75;37.83
28267;BME280;15525;45.568;5.448;2022-07-17T06:55:13;98502.34;;;24.76;37.86
28267;BME280;15525;45.568;5.448;2022-07-17T06:57:39;98490.19;;;24.62;37.97
28267;BME280;15525;45.568;5.448;2022-07-17T07:00:05;98507.81;;;24.76;38.00
28267;BME280;15525;45.568;5.448;2022-07-17T07:02:30;98506.78;;;24.96;37.73
28267;BME280;15525;45.568;5.448;2022-07-17T07:04:56;98490.88;;;25.02;37.52
28267;BME280;15525;45.568;5.448;2022-07-17T07:07:21;98494.06;;;25.19;37.46
28267;BME280;15525;45.568;5.448;2022-07-17T07:09:47;98493.69;;;25.33;37.19
28267;BME280;15525;45.568;5.448;2022-07-17T07:12:12;98486.41;;;25.56;36.75
28267;BME280;15525;45.568;5.448;2022-07-17T07:14:37;98491.94;;;25.75;36.72
28267;BME280;15525;45.568;5.448;2022-07-17T07:17:03;98500.00;;;25.68;36.67
28267;BME280;15525;45.568;5.448;2022-07-17T07:19:28;98489.09;;;25.87;36.69
28267;BME280;15525;45.568;5.448;2022-07-17T07:21:54;98498.09;;;26.03;36.25
28267;BME280;15525;45.568;5.448;2022-07-17T07:24:19;98492.78;;;26.10;36.25
28267;BME280;15525;45.568;5.448;2022-07-17T07:26:44;98496.84;;;26.16;36.32
28267;BME280;15525;45.568;5.448;2022-07-17T07:29:10;98503.13;;;26.35;36.03
28267;BME280;15525;45.568;5.448;2022-07-17T07:31:35;98487.91;;;26.38;35.76
28267;BME280;15525;45.568;5.448;2022-07-17T07:34:01;98495.72;;;26.74;35.45
28267;BME280;15525;45.568;5.448;2022-07-17T07:36:27;98510.84;;;26.87;35.17
28267;BME280;15525;45.568;5.448;2022-07-17T07:38:52;98505.34;;;27.06;35.08
28267;BME280;15525;45.568;5.448;2022-07-17T07:41:18;98522.16;;;26.82;35.35
28267;BME280;15525;45.568;5.448;2022-07-17T07:43:43;98506.53;;;26.86;35.14
28267;BME280;15525;45.568;5.448;2022-07-17T07:46:09;98496.56;;;26.78;35.37
28267;BME280;15525;45.568;5.448;2022-07-17T07:48:34;98508.47;;;27.04;35.24
28267;BME280;15525;45.568;5.448;2022-07-17T07:50:59;98514.88;;;27.12;35.31
28267;BME280;15525;45.568;5.448;2022-07-17T07:53:25;98511.59;;;27.25;34.82
28267;BME280;15525;45.568;5.448;2022-07-17T07:55:50;98508.28;;;27.61;34.38
28267;BME280;15525;45.568;5.448;2022-07-17T07:58:16;98509.81;;;27.59;34.30
28267;BME280;15525;45.568;5.448;2022-07-17T08:00:43;98500.50;;;27.67;34.12
28267;BME280;15525;45.568;5.448;2022-07-17T08:03:09;98503.94;;;27.83;33.73
28267;BME280;15525;45.568;5.448;2022-07-17T08:05:34;98512.38;;;28.23;33.48
28267;BME280;15525;45.568;5.448;2022-07-17T08:08:01;98503.59;;;28.14;33.54
28267;BME280;15525;45.568;5.448;2022-07-17T08:10:27;98509.19;;;28.17;33.33
28267;BME280;15525;45.568;5.448;2022-07-17T08:12:52;98515.94;;;28.50;33.07
28267;BME280;15525;45.568;5.448;2022-07-17T08:15:20;98510.25;;;28.69;32.92
28267;BME280;15525;45.568;5.448;2022-07-17T08:17:47;98523.81;;;28.84;32.91
28267;BME280;15525;45.568;5.448;2022-07-17T08:20:13;98522.81;;;28.99;32.32
28267;BME280;15525;45.568;5.448;2022-07-17T08:22:39;98522.16;;;29.13;32.03
28267;BME280;15525;45.568;5.448;2022-07-17T08:25:05;98520.47;;;29.41;31.80
28267;BME280;15525;45.568;5.448;2022-07-17T08:27:41;98517.50;;;29.60;31.46
28267;BME280;15525;45.568;5.448;2022-07-17T08:30:08;98518.41;;;29.71;31.48
28267;BME280;15525;45.568;5.448;2022-07-17T08:32:34;98527.09;;;29.77;31.70
28267;BME280;15525;45.568;5.448;2022-07-17T08:35:00;98512.41;;;29.62;31.38
28267;BME280;15525;45.568;5.448;2022-07-17T08:37:26;98505.91;;;29.91;31.07
28267;BME280;15525;45.568;5.448;2022-07-17T08:39:52;98511.47;;;29.95;31.25
28267;BME280;15525;45.568;5.448;2022-07-17T08:42:17;98520.81;;;29.80;31.02
28267;BME280;15525;45.568;5.448;2022-07-17T08:44:43;98520.63;;;30.09;30.61
28267;BME280;15525;45.568;5.448;2022-07-17T08:47:11;98510.09;;;30.25;30.21
28267;BME280;15525;45.568;5.448;2022-07-17T08:49:41;98530.19;;;31.04;29.75
28267;BME280;15525;45.568;5.448;2022-07-17T08:52:09;98515.25;;;31.44;29.19
28267;BME280;15525;45.568;5.448;2022-07-17T08:54:35;98535.34;;;31.16;29.35
28267;BME280;15525;45.568;5.448;2022-07-17T08:57:02;98517.53;;;30.96;29.56
28267;BME280;15525;45.568;5.448;2022-07-17T08:59:27;98520.28;;;30.96;29.29
28267;BME280;15525;45.568;5.448;2022-07-17T09:01:53;98517.97;;;31.19;29.09
28267;BME280;15525;45.568;5.448;2022-07-17T09:04:18;98531.47;;;31.52;28.78
28267;BME280;15525;45.568;5.448;2022-07-17T09:06:43;98524.34;;;31.51;28.96
28267;BME280;15525;45.568;5.448;2022-07-17T09:09:12;98535.78;;;31.25;29.19
28267;BME280;15525;45.568;5.448;2022-07-17T09:11:57;98536.63;;;31.54;28.69
28267;BME280;15525;45.568;5.448;2022-07-17T09:14:24;98523.56;;;31.58;28.59
28267;BME280;15525;45.568;5.448;2022-07-17T09:16:52;98533.84;;;32.06;28.04
28267;BME280;15525;45.568;5.448;2022-07-17T09:19:31;98533.75;;;32.55;27.79
28267;BME280;15525;45.568;5.448;2022-07-17T09:27:12;98520.53;;;33.56;26.40
28267;BME280;15525;45.568;5.448;2022-07-17T09:32:20;98529.38;;;33.40;26.79
28267;BME280;15525;45.568;5.448;2022-07-17T09:34:54;98540.53;;;33.33;26.80
28267;BME280;15525;45.568;5.448;2022-07-17T09:37:24;98523.28;;;33.59;27.02
28267;BME280;15525;45.568;5.448;2022-07-17T09:39:50;98537.78;;;33.84;26.20
28267;BME280;15525;45.568;5.448;2022-07-17T09:42:27;98536.81;;;34.05;25.60
28267;BME280;15525;45.568;5.448;2022-07-17T09:45:04;98523.66;;;33.61;26.13
28267;BME280;15525;45.568;5.448;2022-07-17T09:47:32;98522.13;;;33.53;26.48
28267;BME280;15525;45.568;5.448;2022-07-17T09:50:00;98526.72;;;33.81;25.84
28267;BME280;15525;45.568;5.448;2022-07-17T09:52:31;98540.66;;;33.70;26.16
28267;BME280;15525;45.568;5.448;2022-07-17T09:54:57;98536.47;;;33.48;26.65
28267;BME280;15525;45.568;5.448;2022-07-17T09:57:29;98544.97;;;34.59;25.42
28267;BME280;15525;45.568;5.448;2022-07-17T09:59:55;98541.25;;;35.03;24.50
28267;BME280;15525;45.568;5.448;2022-07-17T10:02:21;98535.28;;;35.35;24.17
28267;BME280;15525;45.568;5.448;2022-07-17T10:04:48;98531.28;;;35.05;24.38
28267;BME280;15525;45.568;5.448;2022-07-17T10:07:13;98536.94;;;34.98;24.67
28267;BME280;15525;45.568;5.448;2022-07-17T10:09:39;98540.03;;;35.34;24.83
28267;BME280;15525;45.568;5.448;2022-07-17T10:12:06;98540.63;;;35.49;24.46
28267;BME280;15525;45.568;5.448;2022-07-17T10:14:33;98540.22;;;35.20;24.20
28267;BME280;15525;45.568;5.448;2022-07-17T10:17:07;98548.91;;;34.95;24.15
28267;BME280;15525;45.568;5.448;2022-07-17T10:19:33;98558.41;;;34.27;24.55
28267;BME280;15525;45.568;5.448;2022-07-17T10:22:03;98541.59;;;34.75;24.35
28267;BME280;15525;45.568;5.448;2022-07-17T10:24:29;98537.63;;;35.63;23.67
28267;BME280;15525;45.568;5.448;2022-07-17T10:26:56;98543.81;;;34.90;23.55
28267;BME280;15525;45.568;5.448;2022-07-17T10:29:26;98541.22;;;35.06;23.76
28267;BME280;15525;45.568;5.448;2022-07-17T10:31:52;98534.78;;;35.40;23.69
28267;BME280;15525;45.568;5.448;2022-07-17T10:34:18;98536.84;;;36.51;23.32
28267;BME280;15525;45.568;5.448;2022-07-17T10:36:44;98539.59;;;36.74;22.52
28267;BME280;15525;45.568;5.448;2022-07-17T10:39:21;98541.75;;;36.86;21.82
28267;BME280;15525;45.568;5.448;2022-07-17T10:42:01;98548.19;;;36.83;21.81
28267;BME280;15525;45.568;5.448;2022-07-17T10:44:28;98541.47;;;36.80;22.69
28267;BME280;15525;45.568;5.448;2022-07-17T10:46:54;98531.75;;;37.04;22.22
28267;BME280;15525;45.568;5.448;2022-07-17T10:49:20;98543.63;;;37.28;22.40
28267;BME280;15525;45.568;5.448;2022-07-17T10:51:46;98537.78;;;37.58;22.05
28267;BME280;15525;45.568;5.448;2022-07-17T10:54:12;98535.09;;;37.51;21.40
28267;BME280;15525;45.568;5.448;2022-07-17T10:56:41;98550.06;;;36.89;22.06
28267;BME280;15525;45.568;5.448;2022-07-17T10:59:06;98538.53;;;36.68;21.91
28267;BME280;15525;45.568;5.448;2022-07-17T11:01:32;98535.06;;;36.41;22.83
28267;BME280;15525;45.568;5.448;2022-07-17T11:03:59;98533.59;;;37.14;21.87
28267;BME280;15525;45.568;5.448;2022-07-17T11:06:33;98536.22;;;37.02;21.87
28267;BME280;15525;45.568;5.448;2022-07-17T11:09:10;98536.66;;;36.19;22.25
28267;BME280;15525;45.568;5.448;2022-07-17T11:11:41;98542.00;;;36.52;21.90
28267;BME280;15525;45.568;5.448;2022-07-17T11:14:12;98535.84;;;36.61;22.22
28267;BME280;15525;45.568;5.448;2022-07-17T11:16:53;98527.72;;;36.08;22.75
28267;BME280;15525;45.568;5.448;2022-07-17T11:19:33;98521.19;;;36.57;21.89
28267;BME280;15525;45.568;5.448;2022-07-17T11:22:03;98528.94;;;36.69;21.77
28267;BME280;15525;45.568;5.448;2022-07-17T11:27:02;98522.78;;;36.58;21.96
28267;BME280;15525;45.568;5.448;2022-07-17T11:29:40;98521.78;;;36.68;21.93
28267;BME280;15525;45.568;5.448;2022-07-17T11:32:06;98496.66;;;37.23;21.39
28267;BME280;15525;45.568;5.448;2022-07-17T11:34:32;98518.69;;;37.37;20.94
28267;BME280;15525;45.568;5.448;2022-07-17T11:37:02;98502.88;;;37.11;21.11
28267;BME280;15525;45.568;5.448;2022-07-17T11:39:44;98495.09;;;37.22;21.02
28267;BME280;15525;45.568;5.448;2022-07-17T11:42:19;98507.50;;;37.85;21.69
28267;BME280;15525;45.568;5.448;2022-07-17T11:44:46;98521.25;;;38.68;20.15
28267;BME280;15525;45.568;5.448;2022-07-17T11:47:20;98519.88;;;39.01;19.12
28267;BME280;15525;45.568;5.448;2022-07-17T11:49:45;98507.94;;;38.85;19.50
28267;BME280;15525;45.568;5.448;2022-07-17T11:52:13;98505.41;;;39.03;19.60
28267;BME280;15525;45.568;5.448;2022-07-17T11:54:48;98511.06;;;39.78;19.67
28267;BME280;15525;45.568;5.448;2022-07-17T11:57:14;98499.84;;;39.53;20.08
28267;BME280;15525;45.568;5.448;2022-07-17T11:59:40;98500.25;;;39.89;19.42
28267;BME280;15525;45.568;5.448;2022-07-17T12:04:32;98519.78;;;38.64;19.67
28267;BME280;15525;45.568;5.448;2022-07-17T12:07:00;98512.47;;;38.95;19.13
28267;BME280;15525;45.568;5.448;2022-07-17T12:09:27;98517.75;;;38.93;19.62
28267;BME280;15525;45.568;5.448;2022-07-17T12:11:53;98504.75;;;39.24;19.74
28267;BME280;15525;45.568;5.448;2022-07-17T12:14:19;98503.00;;;39.55;19.43
28267;BME280;15525;45.568;5.448;2022-07-17T12:16:46;98493.41;;;38.90;19.79
28267;BME280;15525;45.568;5.448;2022-07-17T12:19:14;98494.38;;;38.14;20.33
28267;BME280;15525;45.568;5.448;2022-07-17T12:24:28;98496.69;;;38.88;19.02
28267;BME280;15525;45.568;5.448;2022-07-17T12:26:56;98497.13;;;39.62;19.28
28267;BME280;15525;45.568;5.448;2022-07-17T12:29:22;98491.72;;;39.80;19.45
28267;BME280;15525;45.568;5.448;2022-07-17T12:31:48;98488.16;;;38.92;19.60
28267;BME280;15525;45.568;5.448;2022-07-17T12:34:14;98511.25;;;38.39;20.66
28267;BME280;15525;45.568;5.448;2022-07-17T12:36:39;98501.63;;;39.09;20.41
28267;BME280;15525;45.568;5.448;2022-07-17T12:39:04;98500.06;;;39.21;19.93
28267;BME280;15525;45.568;5.448;2022-07-17T12:41:31;98494.13;;;39.44;20.15
28267;BME280;15525;45.568;5.448;2022-07-17T12:43:57;98483.19;;;39.83;19.67
28267;BME280;15525;45.568;5.448;2022-07-17T12:46:22;98489.22;;;40.50;18.88
28267;BME280;15525;45.568;5.448;2022-07-17T12:48:48;98480.75;;;40.41;18.93
28267;BME280;15525;45.568;5.448;2022-07-17T12:51:14;98492.31;;;39.75;19.54
28267;BME280;15525;45.568;5.448;2022-07-17T12:53:42;98483.09;;;39.87;19.63
28267;BME280;15525;45.568;5.448;2022-07-17T12:56:08;98496.69;;;39.26;20.04
28267;BME280;15525;45.568;5.448;2022-07-17T12:58:35;98482.84;;;38.69;20.33
28267;BME280;15525;45.568;5.448;2022-07-17T13:01:00;98475.88;;;38.73;20.34
28267;BME280;15525;45.568;5.448;2022-07-17T13:03:26;98476.63;;;39.40;20.28
28267;BME280;15525;45.568;5.448;2022-07-17T13:05:51;98484.91;;;39.31;19.94
28267;BME280;15525;45.568;5.448;2022-07-17T13:08:18;98478.84;;;40.16;19.43
28267;BME280;15525;45.568;5.448;2022-07-17T13:10:44;98477.78;;;39.89;19.38
28267;BME280;15525;45.568;5.448;2022-07-17T13:13:09;98483.28;;;40.48;19.16